sensor_id;sensor_type;location;lat;lon;timestamp;P1;durP1;ratioP1;P2;durP2;ratioP2
15285;SDS011;7744;52.172;10.668;2022-12-07T00:01:26;20.20;;;14.23;;
15285;SDS011;7744;52.172;10.668;2022-12-07T00:03:54;19.03;;;14.70;;
15285;SDS011;7744;52.172;10.668;2022-12-07T00:06:28;19.07;;;14.97;;
15285;SDS011;7744;52.172;10.668;2022-12-07T00:08:55;18.17;;;13.93;;
15285;SDS011;7744;52.172;10.668;2022-12-07T00:11:21;19.70;;;15.27;;
15285;SDS011;7744;52.172;10.668;2022-12-07T00:13:51;19.10;;;14.70;;
15285;SDS011;7744;52.172;10.668;2022-12-07T00:16:22;21.20;;;14.93;;
15285;SDS011;7744;52.172;10.668;2022-12-07T00:18:53;19.03;;;14.60;;
15285;SDS011;7744;52.172;10.668;2022-12-07T00:21:22;19.90;;;14.93;;
15285;SDS011;7744;52.172;10.668;2022-12-07T00:23:50;18.57;;;15.70;;
15285;SDS011;7744;52.172;10.668;2022-12-07T00:26:19;20.87;;;15.07;;
15285;SDS011;7744;52.172;10.668;2022-12-07T00:28:47;19.57;;;14.60;;
15285;SDS011;7744;52.172;10.668;2022-12-07T00:31:15;19.63;;;15.60;;
15285;SDS011;7744;52.172;10.668;2022-12-07T00:33:42;19.50;;;14.47;;
15285;SDS011;7744;52.172;10.668;2022-12-07T00:36:11;21.27;;;15.07;;
15285;SDS011;7744;52.172;10.668;2022-12-07T00:38:38;20.13;;;15.37;;
15285;SDS011;7744;52.172;10.668;2022-12-07T00:41:06;21.27;;;15.80;;
15285;SDS011;7744;52.172;10.668;2022-12-07T00:43:40;21.50;;;15.00;;
15285;SDS011;7744;52.172;10.668;2022-12-07T00:46:07;19.37;;;14.90;;
15285;SDS011;7744;52.172;10.668;2022-12-07T00:48:33;21.30;;;16.07;;
15285;SDS011;7744;52.172;10.668;2022-12-07T00:50:59;17.50;;;14.23;;
15285;SDS011;7744;52.172;10.668;2022-12-07T00:53:25;20.67;;;15.10;;
15285;SDS011;7744;52.172;10.668;2022-12-07T00:55:51;24.63;;;17.47;;
15285;SDS011;7744;52.172;10.668;2022-12-07T00:58:18;20.17;;;15.53;;
15285;SDS011;7744;52.172;10.668;2022-12-07T01:00:44;23.97;;;17.17;;
15285;SDS011;7744;52.172;10.668;2022-12-07T01:03:11;23.23;;;16.37;;
15285;SDS011;7744;52.172;10.668;2022-12-07T01:05:38;26.33;;;18.00;;
15285;SDS011;7744;52.172;10.668;2022-12-07T01:08:04;25.00;;;17.63;;
15285;SDS011;7744;52.172;10.668;2022-12-07T01:10:30;24.67;;;16.83;;
15285;SDS011;7744;52.172;10.668;2022-12-07T01:12:56;27.57;;;18.93;;
15285;SDS011;7744;52.172;10.668;2022-12-07T01:15:23;25.23;;;17.73;;
15285;SDS011;7744;52.172;10.668;2022-12-07T01:17:52;25.67;;;18.73;;
15285;SDS011;7744;52.172;10.668;2022-12-07T01:20:19;29.00;;;18.37;;
15285;SDS011;7744;52.172;10.668;2022-12-07T01:22:45;26.83;;;18.73;;
15285;SDS011;7744;52.172;10.668;2022-12-07T01:25:10;28.03;;;18.27;;
15285;SDS011;7744;52.172;10.668;2022-12-07T01:27:36;29.57;;;19.70;;
15285;SDS011;7744;52.172;10.668;2022-12-07T01:30:03;27.10;;;19.23;;
15285;SDS011;7744;52.172;10.668;2022-12-07T01:32:30;30.47;;;18.23;;
15285;SDS011;7744;52.172;10.668;2022-12-07T01:34:56;29.93;;;18.80;;
15285;SDS011;7744;52.172;10.668;2022-12-07T01:37:22;30.47;;;19.10;;
15285;SDS011;7744;52.172;10.668;2022-12-07T01:39:48;32.60;;;19.90;;
15285;SDS011;7744;52.172;10.668;2022-12-07T01:42:14;29.00;;;19.47;;
15285;SDS011;7744;52.172;10.668;2022-12-07T01:47:46;27.23;;;18.70;;
15285;SDS011;7744;52.172;10.668;2022-12-07T01:50:15;32.67;;;19.33;;
15285;SDS011;7744;52.172;10.668;2022-12-07T01:52:41;29.53;;;20.70;;
15285;SDS011;7744;52.172;10.668;2022-12-07T01:55:09;29.37;;;20.10;;
15285;SDS011;7744;52.172;10.668;2022-12-07T01:57:39;29.40;;;19.03;;
15285;SDS011;7744;52.172;10.668;2022-12-07T02:00:07;28.80;;;18.60;;
15285;SDS011;7744;52.172;10.668;2022-12-07T02:02:34;30.27;;;19.03;;
15285;SDS011;7744;52.172;10.668;2022-12-07T02:05:04;30.10;;;19.30;;
15285;SDS011;7744;52.172;10.668;2022-12-07T02:07:31;27.17;;;18.20;;
15285;SDS011;7744;52.172;10.668;2022-12-07T02:12:47;25.93;;;18.33;;
15285;SDS011;7744;52.172;10.668;2022-12-07T02:15:15;28.37;;;17.97;;
15285;SDS011;7744;52.172;10.668;2022-12-07T02:20:30;31.87;;;19.40;;
15285;SDS011;7744;52.172;10.668;2022-12-07T02:31:28;23.17;;;17.20;;
15285;SDS011;7744;52.172;10.668;2022-12-07T02:34:05;24.63;;;17.53;;
15285;SDS011;7744;52.172;10.668;2022-12-07T02:36:42;26.00;;;17.97;;
15285;SDS011;7744;52.172;10.668;2022-12-07T02:39:22;23.73;;;16.87;;
15285;SDS011;7744;52.172;10.668;2022-12-07T02:41:56;26.20;;;17.40;;
15285;SDS011;7744;52.172;10.668;2022-12-07T02:44:27;23.80;;;17.33;;
15285;SDS011;7744;52.172;10.668;2022-12-07T02:47:02;24.27;;;17.53;;
15285;SDS011;7744;52.172;10.668;2022-12-07T02:49:30;21.63;;;15.90;;
15285;SDS011;7744;52.172;10.668;2022-12-07T02:51:56;25.70;;;17.30;;
15285;SDS011;7744;52.172;10.668;2022-12-07T02:54:22;28.47;;;18.83;;
15285;SDS011;7744;52.172;10.668;2022-12-07T02:56:52;23.00;;;16.13;;
15285;SDS011;7744;52.172;10.668;2022-12-07T02:59:27;23.97;;;17.13;;
15285;SDS011;7744;52.172;10.668;2022-12-07T03:02:14;24.70;;;16.87;;
15285;SDS011;7744;52.172;10.668;2022-12-07T03:18:27;23.57;;;17.20;;
15285;SDS011;7744;52.172;10.668;2022-12-07T03:20:57;21.57;;;16.27;;
15285;SDS011;7744;52.172;10.668;2022-12-07T03:23:27;22.77;;;16.57;;
15285;SDS011;7744;52.172;10.668;2022-12-07T03:25:57;21.33;;;16.83;;
15285;SDS011;7744;52.172;10.668;2022-12-07T03:28:27;23.60;;;17.70;;
15285;SDS011;7744;52.172;10.668;2022-12-07T03:30:58;23.33;;;16.77;;
15285;SDS011;7744;52.172;10.668;2022-12-07T03:33:33;21.47;;;16.23;;
15285;SDS011;7744;52.172;10.668;2022-12-07T03:36:30;25.07;;;17.07;;
15285;SDS011;7744;52.172;10.668;2022-12-07T03:39:25;22.90;;;16.93;;
15285;SDS011;7744;52.172;10.668;2022-12-07T03:42:01;24.27;;;17.87;;
15285;SDS011;7744;52.172;10.668;2022-12-07T03:44:30;23.83;;;18.20;;
15285;SDS011;7744;52.172;10.668;2022-12-07T03:47:05;26.30;;;17.23;;
15285;SDS011;7744;52.172;10.668;2022-12-07T03:53:02;21.50;;;16.70;;
15285;SDS011;7744;52.172;10.668;2022-12-07T03:55:37;24.00;;;17.57;;
15285;SDS011;7744;52.172;10.668;2022-12-07T03:58:07;23.57;;;17.40;;
15285;SDS011;7744;52.172;10.668;2022-12-07T04:00:37;24.47;;;17.47;;
15285;SDS011;7744;52.172;10.668;2022-12-07T04:03:02;22.67;;;16.63;;
15285;SDS011;7744;52.172;10.668;2022-12-07T04:05:28;22.53;;;16.50;;
15285;SDS011;7744;52.172;10.668;2022-12-07T04:07:54;22.43;;;15.87;;
15285;SDS011;7744;52.172;10.668;2022-12-07T04:10:20;22.10;;;15.77;;
15285;SDS011;7744;52.172;10.668;2022-12-07T04:12:46;21.10;;;16.30;;
15285;SDS011;7744;52.172;10.668;2022-12-07T04:15:11;23.13;;;15.83;;
15285;SDS011;7744;52.172;10.668;2022-12-07T04:17:37;23.90;;;15.13;;
15285;SDS011;7744;52.172;10.668;2022-12-07T04:20:03;22.03;;;16.03;;
15285;SDS011;7744;52.172;10.668;2022-12-07T04:22:30;21.77;;;15.57;;
15285;SDS011;7744;52.172;10.668;2022-12-07T04:24:56;24.70;;;16.13;;
15285;SDS011;7744;52.172;10.668;2022-12-07T04:27:21;20.87;;;15.00;;
15285;SDS011;7744;52.172;10.668;2022-12-07T04:29:47;22.93;;;15.50;;
15285;SDS011;7744;52.172;10.668;2022-12-07T04:32:12;19.30;;;14.77;;
15285;SDS011;7744;52.172;10.668;2022-12-07T04:34:38;20.90;;;15.13;;
15285;SDS011;7744;52.172;10.668;2022-12-07T04:37:04;21.07;;;14.20;;
15285;SDS011;7744;52.172;10.668;2022-12-07T04:39:32;18.00;;;13.37;;
15285;SDS011;7744;52.172;10.668;2022-12-07T04:41:58;19.03;;;13.57;;
15285;SDS011;7744;52.172;10.668;2022-12-07T04:44:25;18.33;;;13.97;;
15285;SDS011;7744;52.172;10.668;2022-12-07T04:46:51;18.40;;;13.43;;
15285;SDS011;7744;52.172;10.668;2022-12-07T04:49:18;18.90;;;12.80;;
15285;SDS011;7744;52.172;10.668;2022-12-07T04:51:44;18.33;;;13.33;;
15285;SDS011;7744;52.172;10.668;2022-12-07T04:54:10;22.47;;;14.53;;
15285;SDS011;7744;52.172;10.668;2022-12-07T04:56:36;17.83;;;13.53;;
15285;SDS011;7744;52.172;10.668;2022-12-07T04:59:02;17.83;;;12.50;;
15285;SDS011;7744;52.172;10.668;2022-12-07T05:01:29;19.50;;;13.13;;
15285;SDS011;7744;52.172;10.668;2022-12-07T05:03:55;20.13;;;12.90;;
15285;SDS011;7744;52.172;10.668;2022-12-07T05:06:20;16.70;;;13.20;;
15285;SDS011;7744;52.172;10.668;2022-12-07T05:08:46;18.00;;;12.67;;
15285;SDS011;7744;52.172;10.668;2022-12-07T05:11:12;19.33;;;13.37;;
15285;SDS011;7744;52.172;10.668;2022-12-07T05:13:57;25.07;;;14.23;;
15285;SDS011;7744;52.172;10.668;2022-12-07T05:16:23;20.27;;;13.33;;
15285;SDS011;7744;52.172;10.668;2022-12-07T05:18:48;20.37;;;13.50;;
15285;SDS011;7744;52.172;10.668;2022-12-07T05:21:14;19.97;;;13.67;;
15285;SDS011;7744;52.172;10.668;2022-12-07T05:23:39;20.43;;;13.43;;
15285;SDS011;7744;52.172;10.668;2022-12-07T05:26:05;19.77;;;12.60;;
15285;SDS011;7744;52.172;10.668;2022-12-07T05:28:31;16.40;;;12.30;;
15285;SDS011;7744;52.172;10.668;2022-12-07T05:30:56;14.83;;;12.13;;
15285;SDS011;7744;52.172;10.668;2022-12-07T05:33:22;16.27;;;11.60;;
15285;SDS011;7744;52.172;10.668;2022-12-07T05:35:47;17.53;;;12.37;;
15285;SDS011;7744;52.172;10.668;2022-12-07T05:38:13;16.63;;;12.03;;
15285;SDS011;7744;52.172;10.668;2022-12-07T05:40:38;18.60;;;11.67;;
15285;SDS011;7744;52.172;10.668;2022-12-07T05:43:04;18.73;;;12.17;;
15285;SDS011;7744;52.172;10.668;2022-12-07T05:45:30;20.63;;;13.30;;
15285;SDS011;7744;52.172;10.668;2022-12-07T05:47:55;15.30;;;11.97;;
15285;SDS011;7744;52.172;10.668;2022-12-07T05:50:21;16.47;;;11.50;;
15285;SDS011;7744;52.172;10.668;2022-12-07T05:52:46;17.83;;;11.67;;
15285;SDS011;7744;52.172;10.668;2022-12-07T05:55:12;16.57;;;10.93;;
15285;SDS011;7744;52.172;10.668;2022-12-07T05:57:38;17.87;;;11.53;;
15285;SDS011;7744;52.172;10.668;2022-12-07T06:00:03;18.07;;;12.07;;
15285;SDS011;7744;52.172;10.668;2022-12-07T06:02:30;14.93;;;11.20;;
15285;SDS011;7744;52.172;10.668;2022-12-07T06:04:55;18.20;;;11.57;;
15285;SDS011;7744;52.172;10.668;2022-12-07T06:07:21;17.53;;;12.17;;
15285;SDS011;7744;52.172;10.668;2022-12-07T06:09:47;18.10;;;13.57;;
15285;SDS011;7744;52.172;10.668;2022-12-07T06:12:12;16.43;;;11.63;;
15285;SDS011;7744;52.172;10.668;2022-12-07T06:14:58;18.10;;;11.90;;
15285;SDS011;7744;52.172;10.668;2022-12-07T06:17:24;17.73;;;11.50;;
15285;SDS011;7744;52.172;10.668;2022-12-07T06:19:50;18.30;;;11.80;;
15285;SDS011;7744;52.172;10.668;2022-12-07T06:22:15;17.33;;;11.70;;
15285;SDS011;7744;52.172;10.668;2022-12-07T06:24:41;18.03;;;12.70;;
15285;SDS011;7744;52.172;10.668;2022-12-07T06:27:07;16.60;;;11.23;;
15285;SDS011;7744;52.172;10.668;2022-12-07T06:29:33;17.87;;;11.03;;
15285;SDS011;7744;52.172;10.668;2022-12-07T06:31:59;15.50;;;9.93;;
15285;SDS011;7744;52.172;10.668;2022-12-07T06:34:25;17.93;;;11.33;;
15285;SDS011;7744;52.172;10.668;2022-12-07T06:36:51;15.93;;;10.87;;
15285;SDS011;7744;52.172;10.668;2022-12-07T06:39:20;14.73;;;9.80;;
15285;SDS011;7744;52.172;10.668;2022-12-07T06:41:47;15.40;;;10.60;;
15285;SDS011;7744;52.172;10.668;2022-12-07T06:44:13;13.43;;;10.37;;
15285;SDS011;7744;52.172;10.668;2022-12-07T06:46:38;15.53;;;11.17;;
15285;SDS011;7744;52.172;10.668;2022-12-07T06:49:04;13.97;;;10.10;;
15285;SDS011;7744;52.172;10.668;2022-12-07T06:51:31;16.27;;;12.00;;
15285;SDS011;7744;52.172;10.668;2022-12-07T06:53:58;16.23;;;12.33;;
15285;SDS011;7744;52.172;10.668;2022-12-07T06:56:24;20.20;;;12.03;;
15285;SDS011;7744;52.172;10.668;2022-12-07T06:58:49;19.37;;;12.40;;
15285;SDS011;7744;52.172;10.668;2022-12-07T07:01:16;22.53;;;14.40;;
15285;SDS011;7744;52.172;10.668;2022-12-07T07:03:43;17.73;;;12.90;;
15285;SDS011;7744;52.172;10.668;2022-12-07T07:06:10;25.83;;;13.70;;
15285;SDS011;7744;52.172;10.668;2022-12-07T07:08:36;22.53;;;13.73;;
15285;SDS011;7744;52.172;10.668;2022-12-07T07:11:02;22.63;;;13.93;;
15285;SDS011;7744;52.172;10.668;2022-12-07T07:13:29;30.40;;;17.50;;
15285;SDS011;7744;52.172;10.668;2022-12-07T07:15:54;30.83;;;17.53;;
15285;SDS011;7744;52.172;10.668;2022-12-07T07:18:20;28.43;;;15.80;;
15285;SDS011;7744;52.172;10.668;2022-12-07T07:20:46;44.67;;;23.10;;
15285;SDS011;7744;52.172;10.668;2022-12-07T07:23:12;22.90;;;13.13;;
15285;SDS011;7744;52.172;10.668;2022-12-07T07:25:37;22.23;;;13.00;;
15285;SDS011;7744;52.172;10.668;2022-12-07T07:28:03;21.20;;;13.80;;
15285;SDS011;7744;52.172;10.668;2022-12-07T07:30:29;22.10;;;13.83;;
15285;SDS011;7744;52.172;10.668;2022-12-07T07:33:01;23.40;;;15.00;;
15285;SDS011;7744;52.172;10.668;2022-12-07T07:35:29;19.90;;;13.37;;
15285;SDS011;7744;52.172;10.668;2022-12-07T07:37:55;21.43;;;13.43;;
15285;SDS011;7744;52.172;10.668;2022-12-07T07:40:21;19.17;;;11.67;;
15285;SDS011;7744;52.172;10.668;2022-12-07T07:42:48;16.20;;;11.73;;
15285;SDS011;7744;52.172;10.668;2022-12-07T07:45:14;18.27;;;11.37;;
15285;SDS011;7744;52.172;10.668;2022-12-07T07:47:40;21.07;;;12.87;;
15285;SDS011;7744;52.172;10.668;2022-12-07T07:50:06;19.30;;;11.50;;
15285;SDS011;7744;52.172;10.668;2022-12-07T07:52:32;21.13;;;11.87;;
15285;SDS011;7744;52.172;10.668;2022-12-07T07:54:57;19.10;;;11.63;;
15285;SDS011;7744;52.172;10.668;2022-12-07T07:57:23;18.40;;;11.43;;
15285;SDS011;7744;52.172;10.668;2022-12-07T07:59:48;14.57;;;9.93;;
15285;SDS011;7744;52.172;10.668;2022-12-07T08:02:16;20.10;;;11.60;;
15285;SDS011;7744;52.172;10.668;2022-12-07T08:04:43;17.17;;;11.33;;
15285;SDS011;7744;52.172;10.668;2022-12-07T08:07:09;19.80;;;11.90;;
15285;SDS011;7744;52.172;10.668;2022-12-07T08:09:35;16.73;;;11.50;;
15285;SDS011;7744;52.172;10.668;2022-12-07T08:12:01;18.90;;;11.17;;
15285;SDS011;7744;52.172;10.668;2022-12-07T08:14:27;14.33;;;9.70;;
15285;SDS011;7744;52.172;10.668;2022-12-07T08:16:53;14.03;;;9.27;;
15285;SDS011;7744;52.172;10.668;2022-12-07T08:19:19;12.33;;;9.47;;
15285;SDS011;7744;52.172;10.668;2022-12-07T08:21:45;13.47;;;8.63;;
15285;SDS011;7744;52.172;10.668;2022-12-07T08:24:11;13.73;;;8.43;;
15285;SDS011;7744;52.172;10.668;2022-12-07T08:26:37;14.07;;;8.47;;
15285;SDS011;7744;52.172;10.668;2022-12-07T08:29:03;15.33;;;7.80;;
15285;SDS011;7744;52.172;10.668;2022-12-07T08:31:28;13.03;;;8.20;;
15285;SDS011;7744;52.172;10.668;2022-12-07T08:33:54;12.60;;;8.60;;
15285;SDS011;7744;52.172;10.668;2022-12-07T08:36:20;11.67;;;8.67;;
15285;SDS011;7744;52.172;10.668;2022-12-07T08:38:48;11.63;;;9.37;;
15285;SDS011;7744;52.172;10.668;2022-12-07T08:41:14;11.83;;;7.90;;
15285;SDS011;7744;52.172;10.668;2022-12-07T08:43:40;13.33;;;8.23;;
15285;SDS011;7744;52.172;10.668;2022-12-07T08:48:48;12.23;;;7.70;;
15285;SDS011;7744;52.172;10.668;2022-12-07T08:51:19;11.53;;;7.73;;
15285;SDS011;7744;52.172;10.668;2022-12-07T08:53:46;14.63;;;7.97;;
15285;SDS011;7744;52.172;10.668;2022-12-07T08:56:13;13.60;;;8.20;;
15285;SDS011;7744;52.172;10.668;2022-12-07T08:58:38;14.57;;;9.23;;
15285;SDS011;7744;52.172;10.668;2022-12-07T09:01:05;14.97;;;8.43;;
15285;SDS011;7744;52.172;10.668;2022-12-07T09:03:31;12.23;;;7.93;;
15285;SDS011;7744;52.172;10.668;2022-12-07T09:05:57;10.80;;;8.73;;
15285;SDS011;7744;52.172;10.668;2022-12-07T09:08:23;9.60;;;7.13;;
15285;SDS011;7744;52.172;10.668;2022-12-07T09:10:54;9.10;;;6.80;;
15285;SDS011;7744;52.172;10.668;2022-12-07T09:13:20;10.00;;;5.83;;
15285;SDS011;7744;52.172;10.668;2022-12-07T09:15:46;9.27;;;5.80;;
15285;SDS011;7744;52.172;10.668;2022-12-07T09:18:12;9.30;;;5.93;;
15285;SDS011;7744;52.172;10.668;2022-12-07T09:20:38;6.67;;;5.17;;
15285;SDS011;7744;52.172;10.668;2022-12-07T09:23:05;7.43;;;5.37;;
15285;SDS011;7744;52.172;10.668;2022-12-07T09:25:31;7.87;;;4.63;;
15285;SDS011;7744;52.172;10.668;2022-12-07T09:27:58;8.40;;;5.37;;
15285;SDS011;7744;52.172;10.668;2022-12-07T09:30:24;6.67;;;5.03;;
15285;SDS011;7744;52.172;10.668;2022-12-07T09:32:55;5.53;;;4.47;;
15285;SDS011;7744;52.172;10.668;2022-12-07T09:35:21;8.40;;;5.67;;
15285;SDS011;7744;52.172;10.668;2022-12-07T09:37:48;8.80;;;4.50;;
15285;SDS011;7744;52.172;10.668;2022-12-07T09:40:14;4.87;;;3.50;;
15285;SDS011;7744;52.172;10.668;2022-12-07T09:42:43;6.37;;;3.47;;
15285;SDS011;7744;52.172;10.668;2022-12-07T09:45:15;7.70;;;4.43;;
15285;SDS011;7744;52.172;10.668;2022-12-07T09:47:46;6.40;;;3.73;;
15285;SDS011;7744;52.172;10.668;2022-12-07T09:50:14;6.57;;;4.07;;
15285;SDS011;7744;52.172;10.668;2022-12-07T09:52:42;6.37;;;4.23;;
15285;SDS011;7744;52.172;10.668;2022-12-07T09:55:12;7.07;;;3.87;;
15285;SDS011;7744;52.172;10.668;2022-12-07T09:57:39;6.67;;;3.77;;
15285;SDS011;7744;52.172;10.668;2022-12-07T10:00:13;9.80;;;4.57;;
15285;SDS011;7744;52.172;10.668;2022-12-07T10:02:46;10.67;;;3.90;;
15285;SDS011;7744;52.172;10.668;2022-12-07T10:05:16;9.17;;;4.47;;
15285;SDS011;7744;52.172;10.668;2022-12-07T10:07:45;6.97;;;4.10;;
15285;SDS011;7744;52.172;10.668;2022-12-07T10:10:19;8.60;;;4.60;;
15285;SDS011;7744;52.172;10.668;2022-12-07T10:12:57;8.43;;;4.77;;
15285;SDS011;7744;52.172;10.668;2022-12-07T10:18:27;7.17;;;4.43;;
15285;SDS011;7744;52.172;10.668;2022-12-07T10:24:01;7.50;;;4.57;;
15285;SDS011;7744;52.172;10.668;2022-12-07T10:26:30;5.53;;;3.87;;
15285;SDS011;7744;52.172;10.668;2022-12-07T10:29:13;6.57;;;3.80;;
15285;SDS011;7744;52.172;10.668;2022-12-07T10:32:04;4.90;;;3.20;;
15285;SDS011;7744;52.172;10.668;2022-12-07T10:34:51;6.10;;;2.90;;
15285;SDS011;7744;52.172;10.668;2022-12-07T10:37:40;5.97;;;2.40;;
15285;SDS011;7744;52.172;10.668;2022-12-07T10:40:23;4.73;;;2.40;;
15285;SDS011;7744;52.172;10.668;2022-12-07T10:43:05;6.20;;;3.27;;
15285;SDS011;7744;52.172;10.668;2022-12-07T10:54:14;4.93;;;1.70;;
15285;SDS011;7744;52.172;10.668;2022-12-07T11:02:21;4.57;;;1.97;;
15285;SDS011;7744;52.172;10.668;2022-12-07T11:05:27;3.37;;;1.83;;
15285;SDS011;7744;52.172;10.668;2022-12-07T11:08:03;3.33;;;1.70;;
15285;SDS011;7744;52.172;10.668;2022-12-07T11:21:36;6.47;;;2.20;;
15285;SDS011;7744;52.172;10.668;2022-12-07T11:24:17;6.47;;;2.30;;
15285;SDS011;7744;52.172;10.668;2022-12-07T11:38:09;3.03;;;2.17;;
15285;SDS011;7744;52.172;10.668;2022-12-07T11:40:39;3.43;;;1.60;;
15285;SDS011;7744;52.172;10.668;2022-12-07T11:46:06;7.77;;;2.70;;
15285;SDS011;7744;52.172;10.668;2022-12-07T11:48:50;3.73;;;1.40;;
15285;SDS011;7744;52.172;10.668;2022-12-07T11:51:25;4.83;;;1.80;;
15285;SDS011;7744;52.172;10.668;2022-12-07T11:54:02;4.47;;;1.97;;
15285;SDS011;7744;52.172;10.668;2022-12-07T11:56:37;5.43;;;2.00;;
15285;SDS011;7744;52.172;10.668;2022-12-07T12:06:42;5.67;;;1.43;;
15285;SDS011;7744;52.172;10.668;2022-12-07T12:09:13;4.03;;;1.40;;
15285;SDS011;7744;52.172;10.668;2022-12-07T12:14:57;2.37;;;1.20;;
15285;SDS011;7744;52.172;10.668;2022-12-07T12:20:31;3.33;;;1.37;;
15285;SDS011;7744;52.172;10.668;2022-12-07T12:23:10;5.17;;;1.87;;
15285;SDS011;7744;52.172;10.668;2022-12-07T12:25:40;3.10;;;1.37;;
15285;SDS011;7744;52.172;10.668;2022-12-07T12:28:10;3.23;;;1.30;;
15285;SDS011;7744;52.172;10.668;2022-12-07T12:33:37;3.53;;;1.47;;
15285;SDS011;7744;52.172;10.668;2022-12-07T12:44:02;5.03;;;1.70;;
15285;SDS011;7744;52.172;10.668;2022-12-07T12:50:16;5.70;;;3.40;;
15285;SDS011;7744;52.172;10.668;2022-12-07T12:57:35;10.93;;;4.00;;
15285;SDS011;7744;52.172;10.668;2022-12-07T13:00:02;9.00;;;4.33;;
15285;SDS011;7744;52.172;10.668;2022-12-07T13:02:51;10.73;;;4.30;;
15285;SDS011;7744;52.172;10.668;2022-12-07T13:18:02;5.57;;;2.50;;
15285;SDS011;7744;52.172;10.668;2022-12-07T13:23:12;2.57;;;1.60;;
15285;SDS011;7744;52.172;10.668;2022-12-07T13:25:51;2.60;;;1.30;;
15285;SDS011;7744;52.172;10.668;2022-12-07T13:28:21;2.50;;;2.00;;
15285;SDS011;7744;52.172;10.668;2022-12-07T13:33:17;3.77;;;1.30;;
15285;SDS011;7744;52.172;10.668;2022-12-07T13:35:44;3.57;;;1.77;;
15285;SDS011;7744;52.172;10.668;2022-12-07T13:41:03;2.70;;;1.43;;
15285;SDS011;7744;52.172;10.668;2022-12-07T13:44:13;3.77;;;1.90;;
15285;SDS011;7744;52.172;10.668;2022-12-07T13:49:24;5.90;;;2.30;;
15285;SDS011;7744;52.172;10.668;2022-12-07T13:51:52;21.90;;;6.87;;
15285;SDS011;7744;52.172;10.668;2022-12-07T13:54:20;16.10;;;4.80;;
15285;SDS011;7744;52.172;10.668;2022-12-07T13:56:47;9.40;;;3.70;;
15285;SDS011;7744;52.172;10.668;2022-12-07T13:59:21;10.13;;;3.83;;
15285;SDS011;7744;52.172;10.668;2022-12-07T14:01:49;6.27;;;2.90;;
15285;SDS011;7744;52.172;10.668;2022-12-07T14:04:35;11.00;;;4.17;;
15285;SDS011;7744;52.172;10.668;2022-12-07T14:07:23;6.67;;;3.23;;
15285;SDS011;7744;52.172;10.668;2022-12-07T14:10:22;6.50;;;3.10;;
15285;SDS011;7744;52.172;10.668;2022-12-07T14:12:54;5.60;;;2.73;;
15285;SDS011;7744;52.172;10.668;2022-12-07T14:15:24;3.30;;;1.97;;
15285;SDS011;7744;52.172;10.668;2022-12-07T14:17:54;4.33;;;1.93;;
15285;SDS011;7744;52.172;10.668;2022-12-07T14:23:19;8.03;;;2.33;;
15285;SDS011;7744;52.172;10.668;2022-12-07T14:25:50;7.80;;;2.27;;
15285;SDS011;7744;52.172;10.668;2022-12-07T14:28:30;7.90;;;2.63;;
15285;SDS011;7744;52.172;10.668;2022-12-07T14:30:57;5.60;;;3.43;;
15285;SDS011;7744;52.172;10.668;2022-12-07T14:33:24;8.37;;;3.03;;
15285;SDS011;7744;52.172;10.668;2022-12-07T14:35:50;9.60;;;4.47;;
15285;SDS011;7744;52.172;10.668;2022-12-07T14:38:20;7.13;;;3.20;;
15285;SDS011;7744;52.172;10.668;2022-12-07T14:40:46;5.50;;;2.70;;
15285;SDS011;7744;52.172;10.668;2022-12-07T14:43:14;5.17;;;2.90;;
15285;SDS011;7744;52.172;10.668;2022-12-07T14:45:41;5.03;;;3.03;;
15285;SDS011;7744;52.172;10.668;2022-12-07T14:48:08;6.93;;;3.23;;
15285;SDS011;7744;52.172;10.668;2022-12-07T14:50:38;5.47;;;2.80;;
15285;SDS011;7744;52.172;10.668;2022-12-07T14:53:10;9.17;;;3.10;;
15285;SDS011;7744;52.172;10.668;2022-12-07T14:55:41;6.00;;;2.67;;
15285;SDS011;7744;52.172;10.668;2022-12-07T14:58:14;5.53;;;2.70;;
15285;SDS011;7744;52.172;10.668;2022-12-07T15:00:41;6.73;;;2.20;;
15285;SDS011;7744;52.172;10.668;2022-12-07T15:03:07;4.80;;;2.63;;
15285;SDS011;7744;52.172;10.668;2022-12-07T15:05:33;5.37;;;2.43;;
15285;SDS011;7744;52.172;10.668;2022-12-07T15:07:59;6.83;;;2.10;;
15285;SDS011;7744;52.172;10.668;2022-12-07T15:10:27;5.13;;;1.87;;
15285;SDS011;7744;52.172;10.668;2022-12-07T15:12:56;5.50;;;2.40;;
15285;SDS011;7744;52.172;10.668;2022-12-07T15:15:41;7.13;;;1.73;;
15285;SDS011;7744;52.172;10.668;2022-12-07T15:18:07;6.93;;;2.70;;
15285;SDS011;7744;52.172;10.668;2022-12-07T15:20:33;23.77;;;15.67;;
15285;SDS011;7744;52.172;10.668;2022-12-07T15:22:58;9.43;;;2.97;;
15285;SDS011;7744;52.172;10.668;2022-12-07T15:25:24;4.50;;;1.70;;
15285;SDS011;7744;52.172;10.668;2022-12-07T15:27:49;4.17;;;2.00;;
15285;SDS011;7744;52.172;10.668;2022-12-07T15:30:15;5.87;;;2.33;;
15285;SDS011;7744;52.172;10.668;2022-12-07T15:32:41;8.17;;;2.50;;
15285;SDS011;7744;52.172;10.668;2022-12-07T15:35:06;5.90;;;2.20;;
15285;SDS011;7744;52.172;10.668;2022-12-07T15:37:32;5.10;;;2.20;;
15285;SDS011;7744;52.172;10.668;2022-12-07T15:39:58;7.30;;;2.20;;
15285;SDS011;7744;52.172;10.668;2022-12-07T15:42:24;6.90;;;2.10;;
15285;SDS011;7744;52.172;10.668;2022-12-07T15:44:49;5.77;;;2.43;;
15285;SDS011;7744;52.172;10.668;2022-12-07T15:47:31;7.57;;;2.40;;
15285;SDS011;7744;52.172;10.668;2022-12-07T15:49:59;9.00;;;3.27;;
15285;SDS011;7744;52.172;10.668;2022-12-07T15:52:26;6.70;;;2.53;;
15285;SDS011;7744;52.172;10.668;2022-12-07T15:54:52;6.47;;;3.30;;
15285;SDS011;7744;52.172;10.668;2022-12-07T15:57:17;9.90;;;2.80;;
15285;SDS011;7744;52.172;10.668;2022-12-07T15:59:43;11.43;;;3.63;;
15285;SDS011;7744;52.172;10.668;2022-12-07T16:02:09;7.30;;;2.90;;
15285;SDS011;7744;52.172;10.668;2022-12-07T16:04:35;7.00;;;3.17;;
15285;SDS011;7744;52.172;10.668;2022-12-07T16:07:01;8.67;;;3.30;;
15285;SDS011;7744;52.172;10.668;2022-12-07T16:09:27;4.87;;;2.70;;
15285;SDS011;7744;52.172;10.668;2022-12-07T16:11:53;4.60;;;3.00;;
15285;SDS011;7744;52.172;10.668;2022-12-07T16:14:19;4.23;;;2.70;;
15285;SDS011;7744;52.172;10.668;2022-12-07T16:16:44;6.37;;;2.53;;
15285;SDS011;7744;52.172;10.668;2022-12-07T16:19:10;6.07;;;2.80;;
15285;SDS011;7744;52.172;10.668;2022-12-07T16:21:37;5.80;;;2.77;;
15285;SDS011;7744;52.172;10.668;2022-12-07T16:24:03;5.23;;;2.53;;
15285;SDS011;7744;52.172;10.668;2022-12-07T16:26:30;11.47;;;4.20;;
15285;SDS011;7744;52.172;10.668;2022-12-07T16:28:56;7.63;;;4.07;;
15285;SDS011;7744;52.172;10.668;2022-12-07T16:31:22;5.40;;;2.83;;
15285;SDS011;7744;52.172;10.668;2022-12-07T16:33:52;5.63;;;2.83;;
15285;SDS011;7744;52.172;10.668;2022-12-07T16:36:21;5.23;;;2.63;;
15285;SDS011;7744;52.172;10.668;2022-12-07T16:38:49;12.70;;;5.60;;
15285;SDS011;7744;52.172;10.668;2022-12-07T16:41:16;7.77;;;3.57;;
15285;SDS011;7744;52.172;10.668;2022-12-07T16:43:42;5.30;;;3.10;;
15285;SDS011;7744;52.172;10.668;2022-12-07T16:46:09;9.30;;;3.20;;
15285;SDS011;7744;52.172;10.668;2022-12-07T16:48:38;6.20;;;3.70;;
15285;SDS011;7744;52.172;10.668;2022-12-07T16:51:06;10.40;;;7.63;;
15285;SDS011;7744;52.172;10.668;2022-12-07T16:53:34;8.07;;;4.13;;
15285;SDS011;7744;52.172;10.668;2022-12-07T16:56:00;5.07;;;2.87;;
15285;SDS011;7744;52.172;10.668;2022-12-07T16:58:26;4.60;;;2.63;;
15285;SDS011;7744;52.172;10.668;2022-12-07T17:00:52;4.33;;;2.83;;
15285;SDS011;7744;52.172;10.668;2022-12-07T17:03:18;5.67;;;3.23;;
15285;SDS011;7744;52.172;10.668;2022-12-07T17:05:44;7.33;;;5.70;;